createdAt,value
2022-10-25T03:00:29.668Z,12.00
2022-10-25T03:02:56.973Z,11.90
2022-10-25T03:05:24.062Z,11.90
2022-10-25T03:07:51.169Z,11.90
2022-10-25T03:10:18.341Z,11.80
2022-10-25T03:12:45.690Z,11.90
2022-10-25T03:15:13.172Z,11.90
2022-10-25T03:17:40.347Z,11.90
2022-10-25T03:20:08.508Z,11.90
2022-10-25T03:22:35.628Z,11.90
2022-10-25T03:25:02.873Z,11.90
2022-10-25T03:27:29.994Z,12.00
2022-10-25T03:29:57.098Z,12.00
2022-10-25T03:32:24.200Z,12.00
2022-10-25T03:34:51.315Z,12.00
2022-10-25T03:37:18.464Z,12.00
2022-10-25T03:39:45.605Z,12.00
2022-10-25T03:42:12.744Z,12.00
2022-10-25T03:44:39.901Z,12.00
2022-10-25T03:47:07.008Z,12.00
2022-10-25T03:49:34.170Z,12.00
2022-10-25T03:52:04.222Z,12.00
2022-10-25T03:54:32.131Z,11.90
2022-10-25T03:56:59.603Z,11.80
2022-10-25T03:59:27.060Z,11.80
2022-10-25T04:01:54.410Z,11.80
2022-10-25T04:04:21.721Z,11.70
2022-10-25T04:06:48.848Z,11.70
2022-10-25T04:09:16.025Z,11.60
2022-10-25T04:11:43.222Z,11.60
2022-10-25T04:14:10.439Z,11.60
2022-10-25T04:16:37.543Z,11.50
2022-10-25T04:19:04.746Z,11.50
2022-10-25T04:21:31.941Z,11.60
2022-10-25T04:24:01.936Z,11.70
2022-10-25T04:26:31.502Z,11.70
2022-10-25T04:28:58.687Z,11.80
2022-10-25T04:31:25.848Z,11.70
2022-10-25T04:33:54.694Z,11.80
2022-10-25T04:36:23.277Z,11.80
2022-10-25T04:38:55.007Z,11.80
2022-10-25T04:41:22.605Z,11.70
2022-10-25T04:43:51.449Z,11.70
2022-10-25T04:46:19.207Z,11.60
2022-10-25T04:48:46.808Z,11.60
2022-10-25T04:51:14.481Z,11.50
2022-10-25T04:53:42.185Z,11.50
2022-10-25T04:56:12.821Z,11.40
2022-10-25T04:58:40.716Z,11.30
2022-10-25T05:01:11.193Z,11.30
2022-10-25T05:03:38.704Z,11.30
2022-10-25T05:06:10.201Z,11.20
2022-10-25T05:08:40.096Z,11.20
2022-10-25T05:11:08.094Z,11.10
2022-10-25T05:13:36.609Z,11.10
2022-10-25T05:16:04.449Z,11.00
2022-10-25T05:18:33.532Z,11.00
2022-10-25T05:21:04.517Z,10.90
2022-10-25T05:23:33.531Z,10.90
2022-10-25T05:26:13.278Z,10.80
2022-10-25T05:28:42.019Z,10.80
2022-10-25T05:31:14.288Z,10.60
2022-10-25T05:33:44.948Z,10.60
2022-10-25T05:36:13.553Z,10.50
2022-10-25T05:38:41.476Z,10.60
2022-10-25T05:41:11.076Z,10.60
2022-10-25T05:43:38.308Z,10.50
2022-10-25T05:46:08.749Z,10.50
2022-10-25T05:48:36.823Z,10.50
2022-10-25T05:51:42.158Z,10.50
2022-10-25T05:54:14.423Z,10.60
2022-10-25T05:56:42.535Z,10.50
2022-10-25T05:59:14.715Z,10.50
2022-10-25T06:01:44.557Z,10.50
2022-10-25T06:04:12.621Z,10.50
2022-10-25T06:06:40.667Z,10.40
2022-10-25T06:09:08.543Z,10.30
2022-10-25T06:11:36.463Z,10.40
2022-10-25T06:14:04.447Z,10.40
2022-10-25T06:16:31.804Z,10.40
2022-10-25T06:18:58.907Z,10.40
2022-10-25T06:21:28.856Z,10.40
2022-10-25T06:23:56.636Z,10.40
2022-10-25T06:26:26.406Z,10.50
2022-10-25T06:28:55.621Z,10.50
2022-10-25T06:31:23.395Z,10.50
2022-10-25T06:33:50.816Z,10.60
2022-10-25T06:36:20.419Z,10.50
2022-10-25T06:38:48.556Z,10.50
2022-10-25T06:41:24.097Z,10.50
2022-10-25T06:43:51.629Z,10.60
2022-10-25T06:46:30.168Z,10.70
2022-10-25T06:48:57.934Z,10.70
2022-10-25T06:51:27.602Z,10.70
2022-10-25T06:53:59.444Z,10.80
2022-10-25T06:56:27.926Z,10.90
2022-10-25T06:58:55.694Z,11.00
2022-10-25T07:01:24.647Z,10.90
2022-10-25T07:03:54.056Z,10.90
2022-10-25T07:06:29.678Z,11.00
2022-10-25T07:09:01.470Z,11.20
2022-10-25T07:11:30.782Z,11.20
2022-10-25T07:13:59.537Z,11.30
2022-10-25T07:16:27.731Z,11.50
2022-10-25T07:19:02.716Z,11.50
2022-10-25T07:21:31.528Z,11.60
2022-10-25T07:23:58.655Z,11.70
2022-10-25T07:26:26.858Z,11.80
2022-10-25T07:28:56.701Z,11.80
2022-10-25T07:31:26.744Z,11.90
2022-10-25T07:33:54.774Z,11.90
2022-10-25T07:36:22.064Z,11.90
2022-10-25T07:38:49.288Z,12.00
2022-10-25T07:41:16.576Z,12.10
2022-10-25T07:43:43.984Z,12.20
2022-10-25T07:46:11.418Z,12.30
2022-10-25T07:48:38.685Z,12.40
2022-10-25T07:51:08.287Z,12.50
2022-10-25T07:53:35.419Z,12.60
2022-10-25T07:56:02.857Z,12.70
2022-10-25T07:58:30.050Z,12.80
2022-10-25T08:01:05.935Z,12.70
2022-10-25T08:03:33.329Z,12.80
2022-10-25T08:06:00.701Z,12.90
2022-10-25T08:08:28.749Z,13.10
2022-10-25T08:10:56.716Z,13.30
2022-10-25T08:13:24.031Z,13.40
2022-10-25T08:15:55.674Z,13.70
2022-10-25T08:18:23.752Z,13.80
2022-10-25T08:21:06.746Z,14.00
2022-10-25T08:23:33.971Z,14.30
2022-10-25T08:26:02.189Z,14.40
2022-10-25T08:28:31.375Z,14.50
2022-10-25T08:31:00.759Z,14.70
2022-10-25T08:33:28.544Z,14.70
2022-10-25T08:35:55.674Z,14.80
2022-10-25T08:38:22.889Z,14.90
2022-10-25T08:41:11.874Z,15.00
2022-10-25T08:46:53.478Z,15.20
2022-10-25T08:49:34.459Z,15.30
2022-10-25T08:52:03.192Z,15.30
2022-10-25T08:54:36.065Z,15.20
2022-10-25T08:57:16.272Z,15.30
2022-10-25T08:59:48.429Z,15.40
2022-10-25T09:02:33.752Z,15.40
2022-10-25T09:05:01.104Z,15.60
2022-10-25T09:07:49.866Z,15.60
2022-10-25T09:10:52.470Z,15.70
2022-10-25T09:13:29.548Z,15.70
2022-10-25T09:16:29.296Z,15.80
2022-10-25T09:18:57.322Z,15.90
2022-10-25T09:21:45.990Z,16.00
2022-10-25T09:24:20.684Z,16.10
2022-10-25T09:27:11.389Z,16.10
2022-10-25T09:29:48.384Z,16.10
2022-10-25T09:32:28.391Z,16.10
2022-10-25T09:34:56.460Z,16.10
2022-10-25T09:37:52.016Z,16.10
2022-10-25T09:40:26.906Z,16.00
2022-10-25T09:43:02.915Z,15.90
2022-10-25T09:45:59.680Z,16.00
2022-10-25T09:48:39.200Z,16.00
2022-10-25T09:51:36.791Z,16.10
2022-10-25T09:54:16.132Z,16.10
2022-10-25T09:56:43.454Z,16.10
2022-10-25T09:59:15.572Z,16.10
2022-10-25T10:01:43.531Z,16.10
2022-10-25T10:04:33.289Z,16.10
2022-10-25T10:07:27.407Z,16.10
2022-10-25T10:09:57.853Z,16.10
2022-10-25T10:12:42.990Z,16.20
2022-10-25T10:15:27.633Z,16.30
2022-10-25T10:18:29.735Z,16.30
2022-10-25T10:21:10.598Z,16.30
2022-10-25T10:23:48.396Z,16.30
2022-10-25T10:26:18.245Z,16.40
2022-10-25T10:28:48.153Z,16.40
2022-10-25T10:31:16.484Z,16.40
2022-10-25T10:33:51.445Z,16.40
2022-10-25T10:36:30.486Z,16.40
2022-10-25T10:39:23.415Z,16.40
2022-10-25T10:42:05.220Z,16.50
2022-10-25T10:44:36.392Z,16.50
2022-10-25T10:47:20.901Z,16.50
2022-10-25T10:49:48.229Z,16.60
2022-10-25T10:52:30.513Z,16.60
2022-10-25T10:54:59.610Z,16.70
2022-10-25T10:57:32.653Z,16.70
2022-10-25T11:00:01.349Z,16.80
2022-10-25T11:02:39.904Z,16.90
2022-10-25T11:05:37.254Z,16.90
2022-10-25T11:08:07.222Z,16.90
2022-10-25T11:10:38.634Z,17.00
2022-10-25T11:13:10.388Z,17.00
2022-10-25T11:15:56.409Z,17.10
2022-10-25T11:18:37.765Z,17.10
2022-10-25T11:21:21.648Z,17.00
2022-10-25T11:24:29.545Z,17.00
2022-10-25T11:27:14.776Z,17.00
2022-10-25T11:30:01.566Z,17.00
2022-10-25T11:32:52.764Z,17.10
2022-10-25T11:35:44.344Z,17.00
2022-10-25T11:38:41.151Z,17.10
2022-10-25T11:41:37.999Z,17.10
2022-10-25T11:44:14.285Z,17.20
2022-10-25T11:47:06.888Z,17.20
2022-10-25T11:49:47.227Z,17.10
2022-10-25T11:53:03.262Z,17.10
2022-10-25T11:55:47.337Z,17.20
2022-10-25T11:58:38.513Z,17.20
2022-10-25T12:01:23.715Z,17.30
2022-10-25T12:04:09.305Z,17.30
2022-10-25T12:07:00.519Z,17.30
2022-10-25T12:09:38.991Z,17.30
2022-10-25T12:12:11.824Z,17.30
2022-10-25T12:14:43.486Z,17.40
2022-10-25T12:17:42.912Z,17.40
2022-10-25T12:20:19.728Z,17.40
2022-10-25T12:22:50.455Z,17.40
2022-10-25T12:25:33.793Z,17.40
2022-10-25T12:28:25.254Z,17.50
2022-10-25T12:31:14.807Z,17.50
2022-10-25T12:34:01.104Z,17.50
2022-10-25T12:36:34.368Z,17.60
2022-10-25T12:39:06.378Z,17.50
2022-10-25T12:41:38.025Z,17.60
2022-10-25T12:44:42.525Z,17.70
2022-10-25T12:47:23.539Z,17.60
2022-10-25T12:49:57.298Z,17.70
2022-10-25T12:52:24.528Z,17.70
2022-10-25T12:55:16.609Z,17.70
2022-10-25T12:57:57.747Z,17.70
2022-10-25T13:00:24.977Z,17.80
2022-10-25T13:03:27.269Z,17.80
2022-10-25T13:06:27.310Z,17.80
2022-10-25T13:09:00.484Z,17.80
2022-10-25T13:11:37.336Z,17.90
2022-10-25T13:14:05.204Z,17.90
2022-10-25T13:16:33.946Z,17.90
2022-10-25T13:22:40.140Z,18.00
2022-10-25T13:25:08.557Z,17.90
2022-10-25T13:27:36.485Z,17.90
2022-10-25T13:30:06.704Z,18.00
2022-10-25T13:32:39.215Z,18.00
2022-10-25T13:35:21.259Z,18.00
2022-10-25T13:37:50.461Z,18.00
2022-10-25T13:40:27.337Z,18.00
2022-10-25T13:43:07.117Z,18.00
2022-10-25T13:45:43.766Z,18.00
2022-10-25T13:48:13.727Z,18.00
2022-10-25T13:50:53.094Z,18.10
2022-10-25T13:53:37.671Z,18.00
2022-10-25T13:56:13.404Z,18.00
2022-10-25T13:58:40.502Z,18.00
2022-10-25T14:01:16.767Z,18.00
2022-10-25T14:04:02.944Z,18.00
2022-10-25T14:06:35.652Z,18.00
2022-10-25T14:11:52.580Z,18.00
2022-10-25T14:14:47.335Z,18.00
2022-10-25T14:17:32.158Z,18.00
2022-10-25T14:20:03.306Z,18.00
2022-10-25T14:22:35.519Z,18.00
2022-10-25T14:25:19.291Z,17.90
2022-10-25T14:27:46.498Z,17.90
2022-10-25T14:30:34.429Z,17.80
2022-10-25T14:33:05.209Z,17.80
2022-10-25T14:35:45.166Z,17.80
2022-10-25T14:38:18.653Z,17.80
2022-10-25T14:40:54.061Z,17.70
2022-10-25T14:43:28.947Z,17.70
2022-10-25T14:46:18.174Z,17.60
2022-10-25T14:48:47.425Z,17.60
2022-10-25T14:51:32.520Z,17.60
2022-10-25T14:54:04.297Z,17.60
2022-10-25T14:56:56.254Z,17.50
2022-10-25T14:59:59.058Z,17.40
2022-10-25T15:02:30.402Z,17.40
2022-10-25T15:04:59.804Z,17.30
2022-10-25T15:07:44.356Z,17.20
2022-10-25T15:10:30.069Z,17.10
2022-10-25T15:13:04.672Z,17.00
2022-10-25T15:15:36.893Z,16.90
2022-10-25T15:18:04.415Z,16.90
2022-10-25T15:20:33.130Z,16.80
2022-10-25T15:23:20.416Z,16.80
2022-10-25T15:25:47.633Z,16.80
2022-10-25T15:28:20.621Z,16.70
2022-10-25T15:30:47.697Z,16.60
2022-10-25T15:33:26.180Z,16.60
2022-10-25T15:36:04.999Z,16.50
2022-10-25T15:39:05.419Z,16.40
2022-10-25T15:41:22.770Z,16.20
2022-10-25T15:43:50.159Z,16.10
2022-10-25T15:46:33.135Z,16.10
2022-10-25T15:49:03.501Z,15.90
2022-10-25T15:51:33.503Z,15.80
2022-10-25T15:54:00.614Z,15.80
2022-10-25T15:56:27.847Z,15.70
2022-10-25T15:58:55.043Z,15.60
2022-10-25T16:01:22.432Z,15.60
2022-10-25T16:03:49.598Z,15.40
2022-10-25T16:06:16.737Z,15.40
2022-10-25T16:08:43.860Z,15.30
2022-10-25T16:11:18.695Z,15.20
2022-10-25T16:13:48.488Z,15.10
2022-10-25T16:16:43.306Z,14.90
2022-10-25T16:19:18.161Z,14.80
2022-10-25T16:21:46.373Z,14.70
2022-10-25T16:24:13.640Z,14.70
2022-10-25T16:26:44.681Z,14.70
2022-10-25T16:29:24.985Z,14.70
2022-10-25T16:31:52.658Z,14.60
2022-10-25T16:34:19.894Z,14.50
2022-10-25T16:36:48.907Z,14.40
2022-10-25T16:39:16.665Z,14.30
2022-10-25T16:41:45.404Z,14.20
2022-10-25T16:44:15.174Z,14.10
2022-10-25T16:46:42.719Z,14.00
2022-10-25T16:49:10.004Z,14.00
2022-10-25T16:51:38.730Z,13.90
2022-10-25T16:54:06.516Z,13.80
2022-10-25T16:56:33.804Z,13.70
2022-10-25T16:59:00.959Z,13.60
2022-10-25T17:01:32.392Z,13.60
2022-10-25T17:04:00.440Z,13.50
2022-10-25T17:06:43.224Z,13.50
2022-10-25T17:09:10.663Z,13.40
2022-10-25T17:11:37.843Z,13.40
2022-10-25T17:14:05.459Z,13.40
2022-10-25T17:16:33.315Z,13.30
2022-10-25T17:19:03.102Z,13.20
2022-10-25T17:21:31.561Z,13.10
2022-10-25T17:23:59.888Z,12.80
2022-10-25T17:26:27.063Z,12.60
2022-10-25T17:28:54.204Z,12.60
2022-10-25T17:31:21.355Z,12.60
2022-10-25T17:33:48.541Z,12.60
2022-10-25T17:36:18.477Z,12.60
2022-10-25T17:38:46.085Z,12.50
2022-10-25T17:41:14.229Z,12.50
2022-10-25T17:43:41.820Z,12.50
2022-10-25T17:46:16.038Z,12.40
2022-10-25T17:48:43.246Z,12.40
2022-10-25T17:51:12.499Z,12.40
2022-10-25T17:53:40.006Z,12.40
2022-10-25T17:56:26.758Z,12.30
2022-10-25T17:58:54.920Z,12.30
2022-10-25T18:01:27.137Z,12.20
2022-10-25T18:03:55.277Z,12.20
2022-10-25T18:06:24.825Z,12.20
2022-10-25T18:08:57.794Z,12.10
2022-10-25T18:11:28.172Z,12.00
2022-10-25T18:13:58.145Z,11.90
2022-10-25T18:16:27.161Z,11.90
2022-10-25T18:18:56.371Z,11.80
2022-10-25T18:21:24.047Z,11.70
2022-10-25T18:23:59.037Z,11.60
2022-10-25T18:26:26.837Z,11.60
2022-10-25T18:28:54.081Z,11.60
2022-10-25T18:31:21.359Z,11.60
2022-10-25T18:33:48.585Z,11.60
2022-10-25T18:36:19.204Z,11.60
2022-10-25T18:38:48.154Z,11.60
2022-10-25T18:41:26.688Z,11.50
2022-10-25T18:43:54.907Z,11.50
2022-10-25T18:46:22.954Z,11.50
2022-10-25T18:48:51.860Z,11.50
2022-10-25T18:51:20.961Z,11.50
2022-10-25T18:53:48.564Z,11.50
2022-10-25T18:56:19.595Z,11.50
2022-10-25T18:58:49.475Z,11.50
2022-10-25T19:01:24.374Z,11.40
2022-10-25T19:03:51.891Z,11.40
2022-10-25T19:06:19.256Z,11.40
2022-10-25T19:08:46.589Z,11.40
2022-10-25T19:11:14.248Z,11.30
2022-10-25T19:13:41.426Z,11.20
2022-10-25T19:16:09.676Z,11.10
2022-10-25T19:18:37.776Z,11.10
2022-10-25T19:21:10.576Z,11.10
2022-10-25T19:23:41.384Z,11.10
2022-10-25T19:26:11.827Z,11.10
2022-10-25T19:28:38.976Z,11.10
2022-10-25T19:31:08.288Z,11.00
2022-10-25T19:33:35.635Z,11.00
2022-10-25T19:36:08.072Z,11.00
2022-10-25T19:38:36.380Z,10.90
2022-10-25T19:41:05.865Z,10.70
2022-10-25T19:43:33.838Z,10.70
2022-10-25T19:46:04.546Z,10.70
2022-10-25T19:48:32.300Z,10.70
2022-10-25T19:51:07.928Z,10.70
2022-10-25T19:53:35.489Z,10.70
2022-10-25T19:56:04.045Z,10.70
2022-10-25T19:58:31.428Z,10.70
2022-10-25T20:01:04.392Z,10.70
2022-10-25T20:03:31.801Z,10.70
2022-10-25T20:06:04.657Z,10.70
2022-10-25T20:08:34.353Z,10.70
2022-10-25T20:11:02.067Z,10.70
2022-10-25T20:13:30.040Z,10.70
2022-10-25T20:15:57.467Z,10.60
2022-10-25T20:18:29.961Z,10.60
2022-10-25T20:21:00.391Z,10.50
2022-10-25T20:23:28.243Z,10.50
2022-10-25T20:25:55.487Z,10.40
2022-10-25T20:28:22.747Z,10.20
2022-10-25T20:30:50.610Z,10.30
2022-10-25T20:33:20.262Z,10.30
2022-10-25T20:35:47.448Z,10.20
2022-10-25T20:38:14.751Z,10.20
2022-10-25T20:40:41.967Z,10.10
2022-10-25T20:43:09.118Z,10.10
2022-10-25T20:45:36.359Z,10.10
2022-10-25T20:48:03.926Z,9.90
2022-10-25T20:50:31.097Z,10.00
2022-10-25T20:53:09.732Z,10.00
2022-10-25T20:55:38.756Z,10.00
2022-10-25T20:58:05.875Z,10.00
